Bei Facebook empfehlenBei Twitter postenGoogle plusPinterest

Das Wetter im Erzgebirge am 21.01.2017

Wetter und Klima am 21.01.2017 Holzhau im Erzgebirge (630m ü.NN)
Letzte gemessene Temperatur und Uhrzeit der Messung23:45:00 Uhr-3.90 °C
Temperatur (Maximum / Höchstwert) und Uhrzeit der Messung14:15:00 Uhr4.80 °C
Temperatur (Minimum / Tiefstwert) und Uhrzeit der Messung23:00:00-5.20 °C
Errechneter Absolutwert der Temperaturschwankungen zwischen Tmin und Tmax des Tages10.00 K
Errechnete Tagesmitteltemperatur-0.85521 °C
Gesamt - Niederschlag des Tages (in flüssiger Form)2.59 Liter / m²
Luftdruck (Maximum / Höchstwert) und Zeitpunkt der Messung00:15:00 Uhr1027.40 hPa
Luftdruck (Minimum / Tiefstwert) und Zeitpunkt der Messung23:45:00 Uhr1024.70 hPa
Errechneter Absolutwert der Luftdruckschwankungen des Tages2.70 hPa
Höchste gemessene Windgeschwindigkeit und Uhrzeit der Messung15:45:00 Uhr5.40 km/h
Errechnete Windhäufigkeit in Relation zu den Messwerten des Tages13.54167 %
Niedrigste Windkühle (Windchill) und Zeitpunkt der Messung23:00:00 Uhr-5.20 °C
Taupunkt (Maximum / Höchstwert) und Uhrzeit der Messung11:45:00 Uhr0.80 °C
Taupunkt (Minimum / Tiefstwert) und Uhrzeit der Messung23:00:00-7.80 °C
Anzahl der automatisch eingelesenen Messwerte 96

Detaillierte Wetter- und Klima- Messwerte für den 21.01.2017 in Holzhau im Erzgebirge (630m ü.NN)
ZeitTemperaturLuftdruckRel. LuftfeuchteWindWindrichtungWindchillTaupunktNiederschlag l/m²
23:45:00-3.90 °C1024.70 hPa83.00 %-6.70 °C2.59
23:30:00-4.00 °C1025.00 hPa83.00 %-6.70 °C2.59
23:15:00-4.40 °C1025.00 hPa84.00 %-7.00 °C2.59
23:00:00-5.20 °C1025.10 hPa84.00 %-7.80 °C2.59
22:45:00-5.00 °C1025.10 hPa83.00 %-7.70 °C2.59
22:30:00-4.70 °C1025.20 hPa83.00 %-7.40 °C2.59
22:15:00-4.40 °C1025.10 hPa83.00 %-7.10 °C2.59
22:00:00-4.10 °C1025.20 hPa83.00 %-6.80 °C2.59
21:45:00-4.10 °C1025.40 hPa82.00 %-7.00 °C2.59
21:30:00-3.90 °C1025.40 hPa81.00 %-7.00 °C2.59
21:15:00-3.80 °C1025.50 hPa81.00 %-6.90 °C2.59
21:00:00-3.70 °C1025.30 hPa81.00 %4.68 km/hS-3.70 °C-6.80 °C2.59
20:45:00-3.60 °C1025.20 hPa81.00 %-6.70 °C2.59
20:30:00-3.50 °C1025.20 hPa80.00 %-6.80 °C2.59
20:15:00-3.40 °C1025.20 hPa80.00 %-6.70 °C2.59
20:00:00-3.50 °C1025.30 hPa79.00 %-7.00 °C2.59
19:45:00-3.50 °C1025.30 hPa79.00 %-7.00 °C2.59
19:30:00-3.10 °C1025.30 hPa79.00 %-6.60 °C2.59
19:15:00-3.00 °C1025.30 hPa79.00 %-6.50 °C2.59
19:00:00-2.80 °C1025.20 hPa80.00 %-6.10 °C2.59
18:45:00-2.70 °C1025.10 hPa82.00 %-5.70 °C2.59
18:30:00-2.70 °C1025.10 hPa82.00 %3.60 km/hS-2.70 °C-5.70 °C2.59
18:15:00-2.70 °C1025.20 hPa82.00 %-5.70 °C2.59
18:00:00-2.70 °C1025.20 hPa82.00 %-5.70 °C2.59
17:45:00-2.60 °C1025.50 hPa82.00 %-5.60 °C2.59
17:30:00-2.40 °C1025.40 hPa81.00 %-5.50 °C2.59
17:15:00-2.40 °C1025.50 hPa81.00 %-5.50 °C2.59
17:00:00-2.10 °C1025.30 hPa80.00 %-5.40 °C2.59
16:45:00-1.60 °C1025.50 hPa80.00 %-4.90 °C2.59
16:30:00-1.00 °C1025.50 hPa79.00 %-4.50 °C2.59
16:15:00-0.40 °C1025.30 hPa78.00 %1.80 km/hSSW-0.40 °C-4.20 °C2.59
16:00:000.50 °C1025.60 hPa75.00 %-3.40 °C2.59
15:45:001.50 °C1025.60 hPa73.00 %5.40 km/hSSW-0.10 °C-2.80 °C2.59
15:30:002.50 °C1025.60 hPa71.00 %-2.20 °C2.59
15:15:003.30 °C1025.60 hPa71.00 %-1.40 °C2.07
15:00:004.10 °C1025.80 hPa68.00 %-1.30 °C2.07
14:45:004.30 °C1025.70 hPa69.00 %-0.90 °C2.07
14:30:004.70 °C1025.60 hPa68.00 %-0.70 °C2.07
14:15:004.80 °C1025.70 hPa70.00 %-0.20 °C1.55
14:00:004.10 °C1025.80 hPa69.00 %-1.10 °C1.55
13:45:004.60 °C1026.00 hPa70.00 %-0.40 °C1.03
13:30:004.40 °C1026.00 hPa71.00 %-0.40 °C1.03
13:15:004.40 °C1026.20 hPa71.00 %0.72 km/hS4.40 °C-0.40 °C1.03
13:00:004.40 °C1026.20 hPa75.00 %2.88 km/hS4.40 °C0.40 °C1.03
12:45:004.10 °C1026.20 hPa76.00 %1.44 km/hS4.10 °C0.30 °C1.03
12:30:004.10 °C1026.10 hPa78.00 %0.60 °C0.51
12:15:003.80 °C1026.40 hPa80.00 %0.72 km/hS3.80 °C0.70 °C0.51
12:00:003.40 °C1026.50 hPa82.00 %0.60 °C0.51
11:45:003.20 °C1026.60 hPa84.00 %0.80 °C0.51
11:30:002.80 °C1026.80 hPa85.00 %0.50 °C0.51
11:15:002.30 °C1026.80 hPa88.00 %0.50 °C 
11:00:001.80 °C1026.90 hPa90.00 %0.30 °C 
10:45:000.90 °C1026.80 hPa91.00 %-0.40 °C 
10:30:000.30 °C1027.00 hPa92.00 %-0.80 °C 
10:15:00-0.10 °C1027.00 hPa93.00 %2.52 km/hS-0.10 °C-1.20 °C 
10:00:00-0.40 °C1027.00 hPa94.00 %-1.30 °C 
09:45:00-0.40 °C1026.90 hPa94.00 %-1.30 °C 
09:30:00-0.60 °C1026.90 hPa94.00 %-1.50 °C 
09:15:00-0.90 °C1026.80 hPa94.00 %-1.80 °C 
09:00:00-1.20 °C1026.70 hPa94.00 %1.80 km/hS-1.20 °C-2.10 °C 
08:45:00-1.30 °C1026.80 hPa94.00 %0.72 km/hS-1.30 °C-2.20 °C 
08:30:00-1.50 °C1026.70 hPa94.00 %-2.40 °C 
08:15:00-1.50 °C1026.80 hPa94.00 %-2.40 °C 
08:00:00-1.50 °C1026.70 hPa94.00 %-2.40 °C 
07:45:00-1.40 °C1026.40 hPa94.00 %1.80 km/hSSO-1.40 °C-2.30 °C 
07:30:00-1.50 °C1026.20 hPa94.00 %-2.40 °C 
07:15:00-1.50 °C1026.50 hPa94.00 %-2.40 °C 
07:00:00-1.50 °C1026.50 hPa94.00 %-2.40 °C 
06:45:00-1.60 °C1026.50 hPa94.00 %3.24 km/hSSW-1.60 °C-2.50 °C 
06:30:00-1.90 °C1026.10 hPa94.00 %-2.80 °C 
06:15:00-2.30 °C1026.20 hPa93.00 %-3.40 °C 
06:00:00-2.70 °C1026.20 hPa93.00 %-3.80 °C 
05:45:00-3.10 °C1026.30 hPa93.00 %-4.20 °C 
05:30:00-3.70 °C1026.60 hPa92.00 %-4.90 °C 
05:15:00-3.80 °C1026.60 hPa91.00 %-5.20 °C 
05:00:00-3.60 °C1026.40 hPa91.00 %-5.00 °C 
04:45:00-3.40 °C1026.30 hPa91.00 %-4.80 °C 
04:30:00-3.20 °C1026.60 hPa91.00 %-4.60 °C 
04:15:00-2.90 °C1026.60 hPa91.00 %-4.30 °C 
04:00:00-2.30 °C1026.70 hPa91.00 %-3.70 °C 
03:45:00-1.80 °C1026.70 hPa92.00 %-3.10 °C 
03:30:00-1.20 °C1026.70 hPa92.00 %-2.50 °C 
03:15:00-0.70 °C1026.80 hPa92.00 %-2.00 °C 
03:00:00-0.40 °C1026.60 hPa93.00 %-1.50 °C 
02:45:00-0.20 °C1026.60 hPa92.00 %-1.50 °C 
02:30:00-0.20 °C1026.70 hPa92.00 %-1.50 °C 
02:15:00-0.40 °C1026.60 hPa92.00 %-1.70 °C 
02:00:00-0.40 °C1026.70 hPa92.00 %-1.70 °C 
01:45:00-0.30 °C1026.70 hPa92.00 %-1.60 °C 
01:30:00-0.20 °C1026.80 hPa92.00 %-1.50 °C 
01:15:00-0.10 °C1026.80 hPa92.00 %-1.40 °C 
01:00:000.00 °C1027.10 hPa92.00 %-1.30 °C 
00:45:000.10 °C1027.30 hPa92.00 %-1.00 °C 
00:30:000.10 °C1027.10 hPa92.00 %-1.00 °C 
00:15:000.10 °C1027.40 hPa92.00 %-1.00 °C 
00:00:00-0.10 °C1027.40 hPa92.00 %-1.40 °C 

Permanenter Link zu dieser Seite: Wetter im Erzgebirge am 21.01.2017
Performance-Info: Die Erstellung der Seite / Statistik(en) / Tabelle(n) erforderte 5 Datenbankserver-Abfrage(n) und dauerte 126 Millisekunden. (Dieser Messwert ist von der Gesamt-Auslastung des Servers abhängig.)
Erzgebirge - Wetter | Erzgebirge - Wetter (Mobilgeräte) | Komplette Klimadatenbank